sensor_id;sensor_type;location;lat;lon;timestamp;P1;durP1;ratioP1;P2;durP2;ratioP2
5458;SDS011;2752;49.992;8.422;2023-04-09T00:00:01;13.00;;;5.90;;
5458;SDS011;2752;49.992;8.422;2023-04-09T00:02:29;11.30;;;6.60;;
5458;SDS011;2752;49.992;8.422;2023-04-09T00:04:55;18.97;;;8.03;;
5458;SDS011;2752;49.992;8.422;2023-04-09T00:07:22;16.53;;;7.80;;
5458;SDS011;2752;49.992;8.422;2023-04-09T00:09:50;11.90;;;6.73;;
5458;SDS011;2752;49.992;8.422;2023-04-09T00:12:17;13.83;;;6.20;;
5458;SDS011;2752;49.992;8.422;2023-04-09T00:14:43;11.57;;;7.10;;
5458;SDS011;2752;49.992;8.422;2023-04-09T00:17:10;10.63;;;5.90;;
5458;SDS011;2752;49.992;8.422;2023-04-09T00:19:37;11.57;;;6.33;;
5458;SDS011;2752;49.992;8.422;2023-04-09T00:22:03;13.30;;;6.67;;
5458;SDS011;2752;49.992;8.422;2023-04-09T00:24:30;10.30;;;6.10;;
5458;SDS011;2752;49.992;8.422;2023-04-09T00:26:58;13.90;;;6.40;;
5458;SDS011;2752;49.992;8.422;2023-04-09T00:29:25;13.47;;;6.43;;
5458;SDS011;2752;49.992;8.422;2023-04-09T00:31:51;17.07;;;7.57;;
5458;SDS011;2752;49.992;8.422;2023-04-09T00:34:18;13.97;;;6.20;;
5458;SDS011;2752;49.992;8.422;2023-04-09T00:36:45;14.13;;;6.90;;
5458;SDS011;2752;49.992;8.422;2023-04-09T00:39:11;14.33;;;6.57;;
5458;SDS011;2752;49.992;8.422;2023-04-09T00:41:38;16.77;;;6.70;;
5458;SDS011;2752;49.992;8.422;2023-04-09T00:44:06;11.13;;;6.70;;
5458;SDS011;2752;49.992;8.422;2023-04-09T00:46:32;14.10;;;7.20;;
5458;SDS011;2752;49.992;8.422;2023-04-09T00:48:59;12.70;;;6.93;;
5458;SDS011;2752;49.992;8.422;2023-04-09T00:51:26;14.23;;;7.07;;
5458;SDS011;2752;49.992;8.422;2023-04-09T00:53:53;14.33;;;7.03;;
5458;SDS011;2752;49.992;8.422;2023-04-09T00:56:20;15.80;;;7.10;;
5458;SDS011;2752;49.992;8.422;2023-04-09T00:58:48;12.90;;;6.20;;
5458;SDS011;2752;49.992;8.422;2023-04-09T01:01:16;15.20;;;6.57;;
5458;SDS011;2752;49.992;8.422;2023-04-09T01:03:43;15.40;;;7.70;;
5458;SDS011;2752;49.992;8.422;2023-04-09T01:06:11;14.97;;;6.97;;
5458;SDS011;2752;49.992;8.422;2023-04-09T01:08:45;17.77;;;7.50;;
5458;SDS011;2752;49.992;8.422;2023-04-09T01:11:19;11.13;;;6.07;;
5458;SDS011;2752;49.992;8.422;2023-04-09T01:13:53;16.07;;;6.80;;
5458;SDS011;2752;49.992;8.422;2023-04-09T01:16:26;14.53;;;7.60;;
5458;SDS011;2752;49.992;8.422;2023-04-09T01:18:57;10.57;;;6.17;;
5458;SDS011;2752;49.992;8.422;2023-04-09T01:21:29;13.20;;;6.30;;
5458;SDS011;2752;49.992;8.422;2023-04-09T01:23:58;13.60;;;6.43;;
5458;SDS011;2752;49.992;8.422;2023-04-09T01:26:37;16.67;;;8.63;;
5458;SDS011;2752;49.992;8.422;2023-04-09T01:29:19;13.63;;;7.27;;
5458;SDS011;2752;49.992;8.422;2023-04-09T01:31:47;14.40;;;7.53;;
5458;SDS011;2752;49.992;8.422;2023-04-09T01:34:15;13.67;;;7.10;;
5458;SDS011;2752;49.992;8.422;2023-04-09T01:36:44;16.03;;;7.77;;
5458;SDS011;2752;49.992;8.422;2023-04-09T01:39:13;15.10;;;7.47;;
5458;SDS011;2752;49.992;8.422;2023-04-09T01:41:40;15.67;;;8.17;;
5458;SDS011;2752;49.992;8.422;2023-04-09T01:44:08;14.03;;;6.97;;
5458;SDS011;2752;49.992;8.422;2023-04-09T01:46:39;19.60;;;7.73;;
5458;SDS011;2752;49.992;8.422;2023-04-09T01:49:06;19.33;;;8.43;;
5458;SDS011;2752;49.992;8.422;2023-04-09T01:51:34;14.47;;;7.83;;
5458;SDS011;2752;49.992;8.422;2023-04-09T01:54:01;16.90;;;7.73;;
5458;SDS011;2752;49.992;8.422;2023-04-09T01:56:38;13.07;;;6.87;;
5458;SDS011;2752;49.992;8.422;2023-04-09T01:59:05;13.80;;;7.30;;
5458;SDS011;2752;49.992;8.422;2023-04-09T02:01:32;14.70;;;7.30;;
5458;SDS011;2752;49.992;8.422;2023-04-09T02:04:06;15.47;;;8.07;;
5458;SDS011;2752;49.992;8.422;2023-04-09T02:06:37;17.00;;;8.20;;
5458;SDS011;2752;49.992;8.422;2023-04-09T02:09:09;15.10;;;7.57;;
5458;SDS011;2752;49.992;8.422;2023-04-09T02:11:38;13.07;;;7.10;;
5458;SDS011;2752;49.992;8.422;2023-04-09T02:14:06;14.80;;;7.00;;
5458;SDS011;2752;49.992;8.422;2023-04-09T02:16:35;15.17;;;7.53;;
5458;SDS011;2752;49.992;8.422;2023-04-09T02:19:02;17.97;;;7.80;;
5458;SDS011;2752;49.992;8.422;2023-04-09T02:21:30;12.80;;;7.47;;
5458;SDS011;2752;49.992;8.422;2023-04-09T02:23:57;17.83;;;8.97;;
5458;SDS011;2752;49.992;8.422;2023-04-09T02:26:23;18.93;;;7.43;;
5458;SDS011;2752;49.992;8.422;2023-04-09T02:28:50;15.57;;;7.20;;
5458;SDS011;2752;49.992;8.422;2023-04-09T02:31:17;14.40;;;7.90;;
5458;SDS011;2752;49.992;8.422;2023-04-09T02:33:44;19.17;;;8.10;;
5458;SDS011;2752;49.992;8.422;2023-04-09T02:36:10;18.03;;;8.20;;
5458;SDS011;2752;49.992;8.422;2023-04-09T02:38:40;19.07;;;8.10;;
5458;SDS011;2752;49.992;8.422;2023-04-09T02:41:07;18.57;;;8.60;;
5458;SDS011;2752;49.992;8.422;2023-04-09T02:43:34;19.33;;;8.77;;
5458;SDS011;2752;49.992;8.422;2023-04-09T02:46:00;21.93;;;8.50;;
5458;SDS011;2752;49.992;8.422;2023-04-09T02:48:27;16.53;;;8.37;;
5458;SDS011;2752;49.992;8.422;2023-04-09T02:50:54;30.53;;;10.73;;
5458;SDS011;2752;49.992;8.422;2023-04-09T02:53:20;23.97;;;9.60;;
5458;SDS011;2752;49.992;8.422;2023-04-09T02:55:48;16.23;;;8.37;;
5458;SDS011;2752;49.992;8.422;2023-04-09T02:58:15;19.17;;;8.67;;
5458;SDS011;2752;49.992;8.422;2023-04-09T03:00:41;22.17;;;10.67;;
5458;SDS011;2752;49.992;8.422;2023-04-09T03:03:08;21.67;;;9.20;;
5458;SDS011;2752;49.992;8.422;2023-04-09T03:05:35;18.27;;;8.63;;
5458;SDS011;2752;49.992;8.422;2023-04-09T03:08:02;18.90;;;8.60;;
5458;SDS011;2752;49.992;8.422;2023-04-09T03:10:28;22.43;;;9.00;;
5458;SDS011;2752;49.992;8.422;2023-04-09T03:12:56;18.20;;;8.60;;
5458;SDS011;2752;49.992;8.422;2023-04-09T03:15:23;25.50;;;8.80;;
5458;SDS011;2752;49.992;8.422;2023-04-09T03:17:49;16.17;;;7.50;;
5458;SDS011;2752;49.992;8.422;2023-04-09T03:20:16;20.53;;;9.17;;
5458;SDS011;2752;49.992;8.422;2023-04-09T03:22:43;17.77;;;8.10;;
5458;SDS011;2752;49.992;8.422;2023-04-09T03:25:09;21.43;;;9.20;;
5458;SDS011;2752;49.992;8.422;2023-04-09T03:27:36;20.30;;;8.40;;
5458;SDS011;2752;49.992;8.422;2023-04-09T03:30:04;20.23;;;9.43;;
5458;SDS011;2752;49.992;8.422;2023-04-09T03:32:32;18.60;;;8.57;;
5458;SDS011;2752;49.992;8.422;2023-04-09T03:34:58;26.77;;;9.30;;
5458;SDS011;2752;49.992;8.422;2023-04-09T03:37:25;18.63;;;9.00;;
5458;SDS011;2752;49.992;8.422;2023-04-09T03:39:52;16.00;;;7.80;;
5458;SDS011;2752;49.992;8.422;2023-04-09T03:42:18;22.43;;;9.37;;
5458;SDS011;2752;49.992;8.422;2023-04-09T03:44:45;23.10;;;10.37;;
5458;SDS011;2752;49.992;8.422;2023-04-09T03:47:13;16.80;;;8.20;;
5458;SDS011;2752;49.992;8.422;2023-04-09T03:49:39;18.80;;;8.70;;
5458;SDS011;2752;49.992;8.422;2023-04-09T03:52:06;19.20;;;8.63;;
5458;SDS011;2752;49.992;8.422;2023-04-09T03:54:33;23.93;;;10.00;;
5458;SDS011;2752;49.992;8.422;2023-04-09T03:56:59;15.87;;;7.97;;
5458;SDS011;2752;49.992;8.422;2023-04-09T03:59:27;18.83;;;10.00;;
5458;SDS011;2752;49.992;8.422;2023-04-09T04:01:54;21.97;;;9.50;;
5458;SDS011;2752;49.992;8.422;2023-04-09T04:04:22;17.70;;;8.43;;
5458;SDS011;2752;49.992;8.422;2023-04-09T04:06:49;18.60;;;8.90;;
5458;SDS011;2752;49.992;8.422;2023-04-09T04:09:15;28.93;;;10.57;;
5458;SDS011;2752;49.992;8.422;2023-04-09T04:11:42;23.80;;;9.27;;
5458;SDS011;2752;49.992;8.422;2023-04-09T04:14:09;20.60;;;8.13;;
5458;SDS011;2752;49.992;8.422;2023-04-09T04:16:36;21.70;;;10.67;;
5458;SDS011;2752;49.992;8.422;2023-04-09T04:19:02;20.20;;;10.00;;
5458;SDS011;2752;49.992;8.422;2023-04-09T04:21:30;21.17;;;8.83;;
5458;SDS011;2752;49.992;8.422;2023-04-09T04:23:57;23.33;;;10.27;;
5458;SDS011;2752;49.992;8.422;2023-04-09T04:26:24;30.10;;;10.50;;
5458;SDS011;2752;49.992;8.422;2023-04-09T04:28:51;22.60;;;9.77;;
5458;SDS011;2752;49.992;8.422;2023-04-09T04:31:17;29.37;;;10.03;;
5458;SDS011;2752;49.992;8.422;2023-04-09T04:33:44;24.10;;;10.03;;
5458;SDS011;2752;49.992;8.422;2023-04-09T04:36:11;29.30;;;10.43;;
5458;SDS011;2752;49.992;8.422;2023-04-09T04:38:40;24.77;;;10.10;;
5458;SDS011;2752;49.992;8.422;2023-04-09T04:41:06;21.30;;;9.27;;
5458;SDS011;2752;49.992;8.422;2023-04-09T04:43:35;27.77;;;11.30;;
5458;SDS011;2752;49.992;8.422;2023-04-09T04:46:02;22.83;;;9.27;;
5458;SDS011;2752;49.992;8.422;2023-04-09T04:48:30;19.90;;;10.20;;
5458;SDS011;2752;49.992;8.422;2023-04-09T04:50:56;20.53;;;9.20;;
5458;SDS011;2752;49.992;8.422;2023-04-09T04:53:24;20.30;;;8.60;;
5458;SDS011;2752;49.992;8.422;2023-04-09T04:55:52;19.87;;;9.00;;
5458;SDS011;2752;49.992;8.422;2023-04-09T04:58:19;18.00;;;8.40;;
5458;SDS011;2752;49.992;8.422;2023-04-09T05:00:46;22.37;;;9.63;;
5458;SDS011;2752;49.992;8.422;2023-04-09T05:03:13;21.97;;;9.30;;
5458;SDS011;2752;49.992;8.422;2023-04-09T05:05:40;20.10;;;8.90;;
5458;SDS011;2752;49.992;8.422;2023-04-09T05:08:06;20.90;;;9.63;;
5458;SDS011;2752;49.992;8.422;2023-04-09T05:10:33;23.10;;;9.97;;
5458;SDS011;2752;49.992;8.422;2023-04-09T05:13:01;20.90;;;9.20;;
5458;SDS011;2752;49.992;8.422;2023-04-09T05:15:28;23.43;;;10.10;;
5458;SDS011;2752;49.992;8.422;2023-04-09T05:17:54;19.70;;;8.80;;
5458;SDS011;2752;49.992;8.422;2023-04-09T05:20:22;21.37;;;8.90;;
5458;SDS011;2752;49.992;8.422;2023-04-09T05:22:48;21.60;;;9.77;;
5458;SDS011;2752;49.992;8.422;2023-04-09T05:25:16;21.23;;;9.90;;
5458;SDS011;2752;49.992;8.422;2023-04-09T05:27:42;25.43;;;10.63;;
5458;SDS011;2752;49.992;8.422;2023-04-09T05:30:11;20.57;;;10.87;;
5458;SDS011;2752;49.992;8.422;2023-04-09T05:32:38;20.70;;;10.10;;
5458;SDS011;2752;49.992;8.422;2023-04-09T05:35:05;24.20;;;10.67;;
5458;SDS011;2752;49.992;8.422;2023-04-09T05:37:32;22.07;;;10.20;;
5458;SDS011;2752;49.992;8.422;2023-04-09T05:39:58;23.33;;;10.57;;
5458;SDS011;2752;49.992;8.422;2023-04-09T05:42:25;28.53;;;11.10;;
5458;SDS011;2752;49.992;8.422;2023-04-09T05:44:52;25.67;;;10.43;;
5458;SDS011;2752;49.992;8.422;2023-04-09T05:47:20;28.00;;;10.33;;
5458;SDS011;2752;49.992;8.422;2023-04-09T05:49:46;23.60;;;11.00;;
5458;SDS011;2752;49.992;8.422;2023-04-09T05:52:13;25.93;;;10.77;;
5458;SDS011;2752;49.992;8.422;2023-04-09T05:54:40;25.20;;;9.93;;
5458;SDS011;2752;49.992;8.422;2023-04-09T05:57:06;28.67;;;10.60;;
5458;SDS011;2752;49.992;8.422;2023-04-09T05:59:33;27.87;;;11.57;;
5458;SDS011;2752;49.992;8.422;2023-04-09T06:02:00;26.20;;;11.50;;
5458;SDS011;2752;49.992;8.422;2023-04-09T06:04:27;24.97;;;11.30;;
5458;SDS011;2752;49.992;8.422;2023-04-09T06:06:54;26.23;;;12.30;;
5458;SDS011;2752;49.992;8.422;2023-04-09T06:09:24;24.87;;;11.20;;
5458;SDS011;2752;49.992;8.422;2023-04-09T06:11:50;25.03;;;10.90;;
5458;SDS011;2752;49.992;8.422;2023-04-09T06:14:17;24.30;;;11.10;;
5458;SDS011;2752;49.992;8.422;2023-04-09T06:16:44;28.93;;;12.70;;
5458;SDS011;2752;49.992;8.422;2023-04-09T06:19:10;23.67;;;11.83;;
5458;SDS011;2752;49.992;8.422;2023-04-09T06:21:38;25.27;;;12.00;;
5458;SDS011;2752;49.992;8.422;2023-04-09T06:24:06;25.40;;;11.23;;
5458;SDS011;2752;49.992;8.422;2023-04-09T06:26:33;22.67;;;11.07;;
5458;SDS011;2752;49.992;8.422;2023-04-09T06:28:59;23.63;;;11.37;;
5458;SDS011;2752;49.992;8.422;2023-04-09T06:31:26;26.83;;;11.63;;
5458;SDS011;2752;49.992;8.422;2023-04-09T06:33:53;21.90;;;10.27;;
5458;SDS011;2752;49.992;8.422;2023-04-09T06:36:20;26.40;;;11.20;;
5458;SDS011;2752;49.992;8.422;2023-04-09T06:38:48;24.77;;;10.93;;
5458;SDS011;2752;49.992;8.422;2023-04-09T06:41:15;24.53;;;10.87;;
5458;SDS011;2752;49.992;8.422;2023-04-09T06:43:41;20.90;;;10.10;;
5458;SDS011;2752;49.992;8.422;2023-04-09T06:46:08;25.10;;;11.57;;
5458;SDS011;2752;49.992;8.422;2023-04-09T06:48:35;23.70;;;12.17;;
5458;SDS011;2752;49.992;8.422;2023-04-09T06:51:02;22.90;;;11.53;;
5458;SDS011;2752;49.992;8.422;2023-04-09T06:53:29;26.93;;;11.67;;
5458;SDS011;2752;49.992;8.422;2023-04-09T06:55:57;22.63;;;11.63;;
5458;SDS011;2752;49.992;8.422;2023-04-09T06:58:23;24.20;;;11.90;;
5458;SDS011;2752;49.992;8.422;2023-04-09T07:00:50;27.77;;;11.97;;
5458;SDS011;2752;49.992;8.422;2023-04-09T07:03:17;27.57;;;12.00;;
5458;SDS011;2752;49.992;8.422;2023-04-09T07:05:44;31.73;;;13.80;;
5458;SDS011;2752;49.992;8.422;2023-04-09T07:08:11;26.17;;;12.00;;
5458;SDS011;2752;49.992;8.422;2023-04-09T07:10:37;24.33;;;12.40;;
5458;SDS011;2752;49.992;8.422;2023-04-09T07:13:06;29.70;;;12.90;;
5458;SDS011;2752;49.992;8.422;2023-04-09T07:15:32;27.23;;;12.43;;
5458;SDS011;2752;49.992;8.422;2023-04-09T07:17:59;29.77;;;13.27;;
5458;SDS011;2752;49.992;8.422;2023-04-09T07:20:26;24.50;;;11.77;;
5458;SDS011;2752;49.992;8.422;2023-04-09T07:22:52;29.63;;;11.17;;
5458;SDS011;2752;49.992;8.422;2023-04-09T07:25:19;26.00;;;11.73;;
5458;SDS011;2752;49.992;8.422;2023-04-09T07:27:46;28.73;;;12.77;;
5458;SDS011;2752;49.992;8.422;2023-04-09T07:30:15;32.53;;;12.47;;
5458;SDS011;2752;49.992;8.422;2023-04-09T07:32:41;25.83;;;12.13;;
5458;SDS011;2752;49.992;8.422;2023-04-09T07:35:08;26.40;;;12.50;;
5458;SDS011;2752;49.992;8.422;2023-04-09T07:37:35;28.83;;;13.00;;
5458;SDS011;2752;49.992;8.422;2023-04-09T07:40:02;28.17;;;13.17;;
5458;SDS011;2752;49.992;8.422;2023-04-09T07:42:29;34.40;;;12.63;;
5458;SDS011;2752;49.992;8.422;2023-04-09T07:44:55;26.60;;;13.00;;
5458;SDS011;2752;49.992;8.422;2023-04-09T07:47:23;28.97;;;12.73;;
5458;SDS011;2752;49.992;8.422;2023-04-09T07:49:52;24.23;;;12.07;;
5458;SDS011;2752;49.992;8.422;2023-04-09T07:52:19;29.07;;;12.87;;
5458;SDS011;2752;49.992;8.422;2023-04-09T07:54:45;33.83;;;12.17;;
5458;SDS011;2752;49.992;8.422;2023-04-09T07:57:12;32.80;;;13.57;;
5458;SDS011;2752;49.992;8.422;2023-04-09T07:59:39;30.30;;;13.20;;
5458;SDS011;2752;49.992;8.422;2023-04-09T08:02:05;29.17;;;13.20;;
5458;SDS011;2752;49.992;8.422;2023-04-09T08:04:33;26.10;;;13.03;;
5458;SDS011;2752;49.992;8.422;2023-04-09T08:07:00;30.60;;;13.83;;
5458;SDS011;2752;49.992;8.422;2023-04-09T08:09:27;28.33;;;12.70;;
5458;SDS011;2752;49.992;8.422;2023-04-09T08:11:53;26.63;;;12.63;;
5458;SDS011;2752;49.992;8.422;2023-04-09T08:14:21;29.90;;;14.20;;
5458;SDS011;2752;49.992;8.422;2023-04-09T08:16:48;29.40;;;13.77;;
5458;SDS011;2752;49.992;8.422;2023-04-09T08:19:15;28.13;;;13.60;;
5458;SDS011;2752;49.992;8.422;2023-04-09T08:21:44;29.33;;;14.50;;
5458;SDS011;2752;49.992;8.422;2023-04-09T08:24:12;28.57;;;14.47;;
5458;SDS011;2752;49.992;8.422;2023-04-09T08:26:39;25.40;;;12.37;;
5458;SDS011;2752;49.992;8.422;2023-04-09T08:29:07;27.83;;;14.90;;
5458;SDS011;2752;49.992;8.422;2023-04-09T08:31:35;26.70;;;13.00;;
5458;SDS011;2752;49.992;8.422;2023-04-09T08:34:02;29.63;;;12.47;;
5458;SDS011;2752;49.992;8.422;2023-04-09T08:36:29;26.30;;;12.90;;
5458;SDS011;2752;49.992;8.422;2023-04-09T08:38:57;27.17;;;13.40;;
5458;SDS011;2752;49.992;8.422;2023-04-09T08:41:25;26.90;;;13.30;;
5458;SDS011;2752;49.992;8.422;2023-04-09T08:43:54;26.40;;;11.80;;
5458;SDS011;2752;49.992;8.422;2023-04-09T08:46:21;23.00;;;13.20;;
5458;SDS011;2752;49.992;8.422;2023-04-09T08:48:49;27.37;;;13.80;;
5458;SDS011;2752;49.992;8.422;2023-04-09T08:51:17;22.30;;;12.30;;
5458;SDS011;2752;49.992;8.422;2023-04-09T08:53:45;22.77;;;12.40;;
5458;SDS011;2752;49.992;8.422;2023-04-09T08:56:15;29.77;;;12.67;;
5458;SDS011;2752;49.992;8.422;2023-04-09T08:58:43;24.50;;;13.40;;
5458;SDS011;2752;49.992;8.422;2023-04-09T09:01:20;24.50;;;12.60;;
5458;SDS011;2752;49.992;8.422;2023-04-09T09:03:55;23.10;;;11.03;;
5458;SDS011;2752;49.992;8.422;2023-04-09T09:06:25;23.93;;;11.57;;
5458;SDS011;2752;49.992;8.422;2023-04-09T09:09:04;23.30;;;11.90;;
5458;SDS011;2752;49.992;8.422;2023-04-09T09:11:33;21.67;;;10.83;;
5458;SDS011;2752;49.992;8.422;2023-04-09T09:14:01;21.23;;;11.87;;
5458;SDS011;2752;49.992;8.422;2023-04-09T09:16:30;23.57;;;11.47;;
5458;SDS011;2752;49.992;8.422;2023-04-09T09:18:58;18.53;;;9.87;;
5458;SDS011;2752;49.992;8.422;2023-04-09T09:21:26;19.27;;;10.73;;
5458;SDS011;2752;49.992;8.422;2023-04-09T09:23:54;20.23;;;10.97;;
5458;SDS011;2752;49.992;8.422;2023-04-09T09:26:21;18.40;;;9.97;;
5458;SDS011;2752;49.992;8.422;2023-04-09T09:28:51;22.57;;;11.70;;
5458;SDS011;2752;49.992;8.422;2023-04-09T09:31:18;18.97;;;10.70;;
5458;SDS011;2752;49.992;8.422;2023-04-09T09:33:46;20.90;;;11.10;;
5458;SDS011;2752;49.992;8.422;2023-04-09T09:36:29;21.73;;;10.93;;
5458;SDS011;2752;49.992;8.422;2023-04-09T09:38:57;16.03;;;9.73;;
5458;SDS011;2752;49.992;8.422;2023-04-09T09:41:27;24.10;;;11.80;;
5458;SDS011;2752;49.992;8.422;2023-04-09T09:43:56;17.03;;;9.97;;
5458;SDS011;2752;49.992;8.422;2023-04-09T09:46:23;17.53;;;9.63;;
5458;SDS011;2752;49.992;8.422;2023-04-09T09:48:51;18.43;;;9.63;;
5458;SDS011;2752;49.992;8.422;2023-04-09T09:51:18;16.73;;;8.13;;
5458;SDS011;2752;49.992;8.422;2023-04-09T09:53:47;17.73;;;9.83;;
5458;SDS011;2752;49.992;8.422;2023-04-09T09:56:20;17.70;;;9.17;;
5458;SDS011;2752;49.992;8.422;2023-04-09T09:58:51;22.33;;;11.50;;
5458;SDS011;2752;49.992;8.422;2023-04-09T10:01:25;17.03;;;9.40;;
5458;SDS011;2752;49.992;8.422;2023-04-09T10:03:52;15.33;;;9.50;;
5458;SDS011;2752;49.992;8.422;2023-04-09T10:06:21;15.07;;;8.20;;
5458;SDS011;2752;49.992;8.422;2023-04-09T10:08:48;15.87;;;9.67;;
5458;SDS011;2752;49.992;8.422;2023-04-09T10:11:16;16.07;;;9.43;;
5458;SDS011;2752;49.992;8.422;2023-04-09T10:13:45;11.67;;;7.00;;
5458;SDS011;2752;49.992;8.422;2023-04-09T10:16:16;13.57;;;8.63;;
5458;SDS011;2752;49.992;8.422;2023-04-09T10:18:44;12.30;;;7.50;;
5458;SDS011;2752;49.992;8.422;2023-04-09T10:21:13;13.00;;;7.97;;
5458;SDS011;2752;49.992;8.422;2023-04-09T10:23:51;12.80;;;7.73;;
5458;SDS011;2752;49.992;8.422;2023-04-09T10:26:18;17.13;;;9.60;;
5458;SDS011;2752;49.992;8.422;2023-04-09T10:28:46;16.93;;;9.73;;
5458;SDS011;2752;49.992;8.422;2023-04-09T10:31:27;14.23;;;8.40;;
5458;SDS011;2752;49.992;8.422;2023-04-09T10:33:55;16.93;;;9.00;;
5458;SDS011;2752;49.992;8.422;2023-04-09T10:36:29;19.67;;;9.40;;
5458;SDS011;2752;49.992;8.422;2023-04-09T10:38:56;21.73;;;10.87;;
5458;SDS011;2752;49.992;8.422;2023-04-09T10:41:24;17.30;;;9.40;;
5458;SDS011;2752;49.992;8.422;2023-04-09T10:43:53;16.77;;;8.00;;
5458;SDS011;2752;49.992;8.422;2023-04-09T10:46:26;13.80;;;7.93;;
5458;SDS011;2752;49.992;8.422;2023-04-09T10:49:11;22.57;;;9.77;;
5458;SDS011;2752;49.992;8.422;2023-04-09T10:51:40;13.87;;;8.50;;
5458;SDS011;2752;49.992;8.422;2023-04-09T10:57:09;13.37;;;6.90;;
5458;SDS011;2752;49.992;8.422;2023-04-09T10:59:40;12.50;;;7.60;;
5458;SDS011;2752;49.992;8.422;2023-04-09T11:02:15;9.80;;;6.13;;
5458;SDS011;2752;49.992;8.422;2023-04-09T11:05:12;14.00;;;7.30;;
5458;SDS011;2752;49.992;8.422;2023-04-09T11:07:46;12.70;;;6.33;;
5458;SDS011;2752;49.992;8.422;2023-04-09T11:10:17;13.57;;;7.13;;
5458;SDS011;2752;49.992;8.422;2023-04-09T11:12:45;9.87;;;6.10;;
5458;SDS011;2752;49.992;8.422;2023-04-09T11:15:15;9.20;;;5.33;;
5458;SDS011;2752;49.992;8.422;2023-04-09T11:17:42;8.30;;;4.97;;
5458;SDS011;2752;49.992;8.422;2023-04-09T11:20:10;10.97;;;6.73;;
5458;SDS011;2752;49.992;8.422;2023-04-09T11:22:38;9.43;;;5.70;;
5458;SDS011;2752;49.992;8.422;2023-04-09T11:25:05;9.37;;;5.20;;
5458;SDS011;2752;49.992;8.422;2023-04-09T11:27:35;9.10;;;5.27;;
5458;SDS011;2752;49.992;8.422;2023-04-09T11:30:03;7.07;;;5.20;;
5458;SDS011;2752;49.992;8.422;2023-04-09T11:32:30;8.33;;;5.33;;
5458;SDS011;2752;49.992;8.422;2023-04-09T11:34:58;9.63;;;6.00;;
5458;SDS011;2752;49.992;8.422;2023-04-09T11:37:26;7.40;;;5.03;;
5458;SDS011;2752;49.992;8.422;2023-04-09T11:39:53;7.60;;;5.10;;
5458;SDS011;2752;49.992;8.422;2023-04-09T11:42:21;6.83;;;4.60;;
5458;SDS011;2752;49.992;8.422;2023-04-09T11:44:49;9.23;;;5.30;;
5458;SDS011;2752;49.992;8.422;2023-04-09T11:47:17;7.40;;;5.00;;
5458;SDS011;2752;49.992;8.422;2023-04-09T11:49:45;7.63;;;4.43;;
5458;SDS011;2752;49.992;8.422;2023-04-09T11:52:12;6.00;;;4.70;;
5458;SDS011;2752;49.992;8.422;2023-04-09T11:54:41;7.87;;;4.87;;
5458;SDS011;2752;49.992;8.422;2023-04-09T11:57:13;6.97;;;5.20;;
5458;SDS011;2752;49.992;8.422;2023-04-09T11:59:39;6.70;;;4.40;;
5458;SDS011;2752;49.992;8.422;2023-04-09T12:02:06;12.30;;;7.67;;
5458;SDS011;2752;49.992;8.422;2023-04-09T12:04:33;7.13;;;4.97;;
5458;SDS011;2752;49.992;8.422;2023-04-09T12:06:59;10.00;;;5.27;;
5458;SDS011;2752;49.992;8.422;2023-04-09T12:09:26;7.20;;;5.00;;
5458;SDS011;2752;49.992;8.422;2023-04-09T12:11:54;8.13;;;4.50;;
5458;SDS011;2752;49.992;8.422;2023-04-09T12:14:22;10.40;;;5.83;;
5458;SDS011;2752;49.992;8.422;2023-04-09T12:16:52;9.40;;;5.90;;
5458;SDS011;2752;49.992;8.422;2023-04-09T12:19:19;8.80;;;5.20;;
5458;SDS011;2752;49.992;8.422;2023-04-09T12:21:47;8.10;;;4.77;;
5458;SDS011;2752;49.992;8.422;2023-04-09T12:24:14;7.60;;;5.20;;
5458;SDS011;2752;49.992;8.422;2023-04-09T12:26:42;8.10;;;5.33;;
5458;SDS011;2752;49.992;8.422;2023-04-09T12:29:10;9.73;;;5.63;;
5458;SDS011;2752;49.992;8.422;2023-04-09T12:31:37;8.57;;;5.90;;
5458;SDS011;2752;49.992;8.422;2023-04-09T12:34:04;10.10;;;5.97;;
5458;SDS011;2752;49.992;8.422;2023-04-09T12:36:31;7.23;;;5.00;;
5458;SDS011;2752;49.992;8.422;2023-04-09T12:38:58;9.30;;;5.30;;
5458;SDS011;2752;49.992;8.422;2023-04-09T12:41:25;9.00;;;5.27;;
5458;SDS011;2752;49.992;8.422;2023-04-09T12:43:52;7.40;;;5.43;;
5458;SDS011;2752;49.992;8.422;2023-04-09T12:46:21;11.23;;;5.90;;
5458;SDS011;2752;49.992;8.422;2023-04-09T12:48:48;11.40;;;6.47;;
5458;SDS011;2752;49.992;8.422;2023-04-09T12:51:15;8.27;;;5.30;;
5458;SDS011;2752;49.992;8.422;2023-04-09T12:53:42;9.03;;;6.30;;
5458;SDS011;2752;49.992;8.422;2023-04-09T12:56:09;8.30;;;5.50;;
5458;SDS011;2752;49.992;8.422;2023-04-09T12:58:36;7.90;;;5.47;;
5458;SDS011;2752;49.992;8.422;2023-04-09T13:01:03;8.37;;;5.70;;
5458;SDS011;2752;49.992;8.422;2023-04-09T13:03:31;14.77;;;6.90;;
5458;SDS011;2752;49.992;8.422;2023-04-09T13:05:58;8.80;;;5.23;;
5458;SDS011;2752;49.992;8.422;2023-04-09T13:08:25;10.67;;;5.50;;
5458;SDS011;2752;49.992;8.422;2023-04-09T13:10:52;9.20;;;5.83;;
5458;SDS011;2752;49.992;8.422;2023-04-09T13:13:19;10.40;;;5.80;;
5458;SDS011;2752;49.992;8.422;2023-04-09T13:15:46;10.60;;;6.27;;
5458;SDS011;2752;49.992;8.422;2023-04-09T13:18:13;8.60;;;5.77;;
5458;SDS011;2752;49.992;8.422;2023-04-09T13:20:42;9.10;;;5.40;;
5458;SDS011;2752;49.992;8.422;2023-04-09T13:23:09;9.70;;;5.60;;
5458;SDS011;2752;49.992;8.422;2023-04-09T13:25:36;9.53;;;5.77;;
5458;SDS011;2752;49.992;8.422;2023-04-09T13:28:03;8.30;;;5.93;;
5458;SDS011;2752;49.992;8.422;2023-04-09T13:30:30;7.20;;;4.87;;
5458;SDS011;2752;49.992;8.422;2023-04-09T13:32:57;11.03;;;5.70;;
5458;SDS011;2752;49.992;8.422;2023-04-09T13:35:24;7.70;;;4.90;;
5458;SDS011;2752;49.992;8.422;2023-04-09T13:37:53;8.80;;;5.10;;
5458;SDS011;2752;49.992;8.422;2023-04-09T13:40:20;11.83;;;6.00;;
5458;SDS011;2752;49.992;8.422;2023-04-09T13:42:47;9.77;;;5.87;;
5458;SDS011;2752;49.992;8.422;2023-04-09T13:45:14;7.53;;;4.70;;
5458;SDS011;2752;49.992;8.422;2023-04-09T13:47:41;8.10;;;4.80;;
5458;SDS011;2752;49.992;8.422;2023-04-09T13:50:09;7.70;;;4.93;;
5458;SDS011;2752;49.992;8.422;2023-04-09T13:52:37;8.13;;;4.73;;
5458;SDS011;2752;49.992;8.422;2023-04-09T13:55:06;8.97;;;5.20;;
5458;SDS011;2752;49.992;8.422;2023-04-09T13:57:33;9.30;;;5.90;;
5458;SDS011;2752;49.992;8.422;2023-04-09T14:00:00;6.50;;;4.17;;
5458;SDS011;2752;49.992;8.422;2023-04-09T14:02:29;9.80;;;5.53;;
5458;SDS011;2752;49.992;8.422;2023-04-09T14:04:56;7.97;;;4.70;;
5458;SDS011;2752;49.992;8.422;2023-04-09T14:07:23;9.43;;;6.00;;
5458;SDS011;2752;49.992;8.422;2023-04-09T14:09:51;6.77;;;4.70;;
5458;SDS011;2752;49.992;8.422;2023-04-09T14:12:19;9.43;;;5.60;;
5458;SDS011;2752;49.992;8.422;2023-04-09T14:14:46;9.23;;;5.03;;
5458;SDS011;2752;49.992;8.422;2023-04-09T14:17:13;7.80;;;5.03;;
5458;SDS011;2752;49.992;8.422;2023-04-09T14:19:41;7.00;;;4.50;;
5458;SDS011;2752;49.992;8.422;2023-04-09T14:22:07;7.53;;;4.87;;
5458;SDS011;2752;49.992;8.422;2023-04-09T14:24:35;9.07;;;5.53;;
5458;SDS011;2752;49.992;8.422;2023-04-09T14:27:03;9.97;;;4.73;;
5458;SDS011;2752;49.992;8.422;2023-04-09T14:29:32;9.77;;;5.03;;
5458;SDS011;2752;49.992;8.422;2023-04-09T14:31:59;6.80;;;4.53;;
5458;SDS011;2752;49.992;8.422;2023-04-09T14:34:25;8.00;;;5.30;;
5458;SDS011;2752;49.992;8.422;2023-04-09T14:36:53;7.00;;;5.00;;
5458;SDS011;2752;49.992;8.422;2023-04-09T14:39:20;6.77;;;4.70;;
5458;SDS011;2752;49.992;8.422;2023-04-09T14:41:47;8.13;;;5.10;;
5458;SDS011;2752;49.992;8.422;2023-04-09T14:44:13;8.73;;;4.70;;
5458;SDS011;2752;49.992;8.422;2023-04-09T14:46:41;10.43;;;5.43;;
5458;SDS011;2752;49.992;8.422;2023-04-09T14:49:08;8.60;;;5.77;;
5458;SDS011;2752;49.992;8.422;2023-04-09T14:51:35;10.27;;;5.00;;
5458;SDS011;2752;49.992;8.422;2023-04-09T14:54:01;5.80;;;4.03;;
5458;SDS011;2752;49.992;8.422;2023-04-09T14:56:28;8.33;;;4.57;;
5458;SDS011;2752;49.992;8.422;2023-04-09T14:58:55;8.73;;;6.17;;
5458;SDS011;2752;49.992;8.422;2023-04-09T15:01:21;7.60;;;4.53;;
5458;SDS011;2752;49.992;8.422;2023-04-09T15:03:49;8.70;;;5.10;;
5458;SDS011;2752;49.992;8.422;2023-04-09T15:06:16;8.60;;;4.97;;